Time;durP1;ratioP1;P1;durP2;ratioP2;P2;SDS_P1;SDS_P2;PMS_P1;PMS_P2;Temp;Humidity;BMP_temperature;BMP_pressure;BME280_temperature;BME280_humidity;BME280_pressure;Samples;Min_cycle;Max_cycle;Signal;HPM_P1;HPM_P2
2023/07/22 00:00:43;;;;;;;8.20;6.60;;;13.60;99.90;;;;;;5087024;28;20170;-68
2023/07/22 00:03:08;;;;;;;7.90;7.20;;;13.70;99.90;;;;;;5093002;28;20188;-69
2023/07/22 00:05:34;;;;;;;8.20;7.50;;;13.70;99.90;;;;;;5092985;28;20201;-69
2023/07/22 00:07:59;;;;;;;7.37;6.53;;;13.70;99.90;;;;;;5093547;22;20609;-68
2023/07/22 00:10:25;;;;;;;8.97;8.10;;;13.70;99.90;;;;;;5048968;28;20171;-68
2023/07/22 00:12:51;;;;;;;6.87;6.27;;;13.70;99.90;;;;;;5073149;28;20167;-68
2023/07/22 00:15:16;;;;;;;7.97;7.27;;;13.70;99.90;;;;;;5071800;28;20166;-67
2023/07/22 00:17:43;;;;;;;6.67;6.10;;;13.80;99.90;;;;;;5072424;28;20210;-67
2023/07/22 00:20:11;;;;;;;5.80;5.30;;;13.80;99.90;;;;;;5080217;28;20170;-69
2023/07/22 00:22:40;;;;;;;8.37;7.67;;;13.80;99.90;;;;;;5091849;28;20420;-67
2023/07/22 00:25:10;;;;;;;7.27;6.67;;;13.80;99.90;;;;;;5087540;28;20748;-67
2023/07/22 00:27:37;;;;;;;8.43;7.53;;;13.90;99.90;;;;;;5088532;28;20766;-66
2023/07/22 00:30:06;;;;;;;6.67;6.03;;;13.90;99.90;;;;;;5080142;28;20455;-66
2023/07/22 00:32:32;;;;;;;7.90;7.20;;;14.00;99.90;;;;;;5087600;28;20793;-66
2023/07/22 00:34:58;;;;;;;9.03;6.20;;;14.00;99.90;;;;;;5071713;28;20825;-66
2023/07/22 00:37:25;;;;;;;7.47;6.80;;;14.10;99.90;;;;;;5073177;28;20417;-66
2023/07/22 00:39:51;;;;;;;6.60;6.00;;;14.10;99.90;;;;;;5074401;28;20442;-67
2023/07/22 00:42:16;;;;;;;7.17;6.57;;;14.10;99.90;;;;;;5074355;28;20451;-67
2023/07/22 00:44:42;;;;;;;7.87;6.80;;;14.20;99.90;;;;;;5071784;28;20162;-67
2023/07/22 00:47:08;;;;;;;7.60;6.80;;;14.20;99.90;;;;;;5081252;28;20220;-68
2023/07/22 00:49:35;;;;;;;7.30;6.70;;;14.20;99.90;;;;;;5072048;28;20672;-67
2023/07/22 00:52:02;;;;;;;9.07;6.67;;;14.20;99.90;;;;;;5065699;28;20419;-67
2023/07/22 00:54:29;;;;;;;6.97;6.37;;;14.20;99.90;;;;;;5072203;28;20446;-67
2023/07/22 00:56:56;;;;;;;7.93;7.07;;;14.30;99.90;;;;;;5069742;28;20483;-67
2023/07/22 00:59:22;;;;;;;7.17;6.67;;;14.30;99.90;;;;;;5080295;28;20459;-67
2023/07/22 01:01:48;;;;;;;7.07;6.47;;;14.30;99.90;;;;;;5074391;28;20408;-67
2023/07/22 01:04:16;;;;;;;9.00;7.40;;;14.30;99.90;;;;;;5078010;28;20180;-67
2023/07/22 01:06:43;;;;;;;7.90;7.10;;;14.40;99.90;;;;;;5069431;28;20166;-68
2023/07/22 01:09:09;;;;;;;6.90;6.20;;;14.30;99.90;;;;;;5052515;28;20463;-67
2023/07/22 01:11:35;;;;;;;7.40;6.80;;;14.30;99.90;;;;;;5071786;28;20413;-67
2023/07/22 01:14:01;;;;;;;7.90;7.20;;;14.30;99.90;;;;;;5070628;28;20169;-67
2023/07/22 01:16:28;;;;;;;9.13;8.37;;;14.40;99.90;;;;;;5075898;28;20416;-68
2023/07/22 01:18:54;;;;;;;8.00;7.30;;;14.30;99.90;;;;;;5064965;28;20198;-68
2023/07/22 01:21:22;;;;;;;8.33;7.63;;;14.30;99.90;;;;;;5072087;28;20403;-67
2023/07/22 01:23:48;;;;;;;7.73;6.93;;;14.40;99.90;;;;;;5064172;28;20404;-68
2023/07/22 01:26:14;;;;;;;8.07;7.30;;;14.40;99.90;;;;;;5070872;28;20409;-67
2023/07/22 01:28:40;;;;;;;8.07;7.37;;;14.40;99.90;;;;;;5070360;28;20196;-67
2023/07/22 01:31:05;;;;;;;7.60;7.00;;;14.50;99.90;;;;;;5050188;28;20442;-67
2023/07/22 01:33:31;;;;;;;7.83;7.17;;;14.50;99.90;;;;;;5071384;28;20185;-67
2023/07/22 01:35:57;;;;;;;8.80;8.00;;;14.50;99.90;;;;;;5064079;28;20236;-67
2023/07/22 01:38:23;;;;;;;8.87;8.03;;;14.40;99.90;;;;;;5071773;28;20511;-67
2023/07/22 01:40:49;;;;;;;9.70;8.47;;;14.50;99.90;;;;;;5063552;28;20441;-68
2023/07/22 01:43:14;;;;;;;8.20;7.60;;;14.50;99.90;;;;;;5081593;28;20180;-67
2023/07/22 01:45:40;;;;;;;8.13;7.33;;;14.50;99.90;;;;;;5073228;28;20211;-67
2023/07/22 01:48:06;;;;;;;8.50;7.50;;;14.40;99.90;;;;;;5068357;28;20572;-69
2023/07/22 01:50:32;;;;;;;8.60;7.77;;;14.40;99.90;;;;;;5071154;28;20640;-69
2023/07/22 01:52:57;;;;;;;7.00;6.40;;;14.50;99.90;;;;;;5065041;28;20434;-66
2023/07/22 01:55:23;;;;;;;8.63;7.30;;;14.50;99.90;;;;;;5076847;28;20890;-66
2023/07/22 01:57:49;;;;;;;7.30;6.73;;;14.50;99.90;;;;;;5053247;28;20206;-67
2023/07/22 02:00:15;;;;;;;8.40;7.60;;;14.40;99.90;;;;;;5072493;28;20167;-67
2023/07/22 02:02:42;;;;;;;8.43;7.70;;;14.40;99.90;;;;;;5070068;28;20170;-67
2023/07/22 02:05:12;;;;;;;8.50;7.50;;;14.40;99.90;;;;;;5065271;28;20406;-66
2023/07/22 02:07:38;;;;;;;9.30;7.77;;;14.40;99.90;;;;;;5070046;28;20954;-66
2023/07/22 02:10:03;;;;;;;10.90;8.00;;;14.40;99.90;;;;;;5066006;28;20431;-67
2023/07/22 02:12:29;;;;;;;9.77;8.87;;;14.40;99.90;;;;;;5078011;28;20447;-67
2023/07/22 02:14:55;;;;;;;11.43;10.43;;;14.30;99.90;;;;;;5069919;28;20608;-66
2023/07/22 02:17:21;;;;;;;8.30;7.60;;;14.30;99.90;;;;;;5072694;28;20440;-67
2023/07/22 02:19:46;;;;;;;7.97;7.37;;;14.30;99.90;;;;;;5072977;28;20210;-67
2023/07/22 02:22:12;;;;;;;8.73;8.00;;;14.30;99.90;;;;;;5076858;28;20180;-67
2023/07/22 02:24:38;;;;;;;8.33;7.63;;;14.20;99.90;;;;;;5076331;28;20170;-66
2023/07/22 02:27:04;;;;;;;9.23;8.43;;;14.20;99.90;;;;;;5068044;28;20416;-66
2023/07/22 02:29:33;;;;;;;8.70;7.80;;;14.20;99.90;;;;;;5077495;28;20277;-67
2023/07/22 02:31:58;;;;;;;7.03;6.37;;;14.10;99.90;;;;;;5068595;28;20412;-67
2023/07/22 02:34:24;;;;;;;6.73;6.23;;;14.20;99.90;;;;;;5073076;28;20404;-66
2023/07/22 02:36:50;;;;;;;7.40;6.80;;;14.10;99.90;;;;;;5071928;28;20644;-67
2023/07/22 02:39:15;;;;;;;8.00;6.60;;;14.00;99.90;;;;;;5073374;28;20203;-68
2023/07/22 02:41:41;;;;;;;6.50;5.90;;;14.00;99.90;;;;;;5082729;28;20240;-67
2023/07/22 02:44:07;;;;;;;7.37;6.77;;;13.90;99.90;;;;;;5057450;28;20248;-66
2023/07/22 02:46:32;;;;;;;6.13;5.60;;;13.90;99.90;;;;;;5071838;28;20166;-66
2023/07/22 02:48:59;;;;;;;6.83;6.20;;;13.80;99.90;;;;;;5078148;28;20218;-66
2023/07/22 02:51:24;;;;;;;5.87;5.30;;;13.80;99.90;;;;;;5070500;28;20170;-66
2023/07/22 02:53:50;;;;;;;6.00;5.40;;;13.70;99.90;;;;;;5076982;28;21401;-66
2023/07/22 02:56:16;;;;;;;5.90;5.47;;;13.90;99.90;;;;;;5073518;28;20303;-66
2023/07/22 02:58:41;;;;;;;6.30;5.70;;;13.90;99.90;;;;;;5076026;28;20258;-67
2023/07/22 03:01:08;;;;;;;7.83;7.13;;;13.80;99.90;;;;;;5079206;28;20170;-67
2023/07/22 03:03:34;;;;;;;6.47;5.87;;;13.80;99.90;;;;;;5073166;28;20592;-67
2023/07/22 03:06:01;;;;;;;6.10;5.60;;;13.80;99.90;;;;;;5071925;28;20412;-67
2023/07/22 03:08:27;;;;;;;5.50;5.00;;;13.80;99.90;;;;;;5084352;28;20459;-67
2023/07/22 03:10:53;;;;;;;7.00;6.30;;;13.70;99.90;;;;;;5079846;28;20483;-67
2023/07/22 03:13:18;;;;;;;5.63;5.13;;;13.70;99.90;;;;;;5073274;28;20455;-67
2023/07/22 03:15:44;;;;;;;6.83;6.20;;;13.70;99.90;;;;;;5069770;28;20210;-67
2023/07/22 03:18:10;;;;;;;5.80;5.30;;;13.70;99.90;;;;;;5078907;28;20209;-66
2023/07/22 03:20:37;;;;;;;5.77;5.33;;;13.70;99.90;;;;;;5073151;28;21015;-67
2023/07/22 03:23:03;;;;;;;7.30;6.13;;;13.70;99.90;;;;;;5071489;28;20452;-68
2023/07/22 03:25:29;;;;;;;6.80;5.33;;;13.70;99.90;;;;;;5084024;28;20902;-67
2023/07/22 03:27:55;;;;;;;7.43;6.10;;;13.70;99.90;;;;;;5075171;28;20570;-67
2023/07/22 03:30:22;;;;;;;5.53;5.13;;;13.70;99.90;;;;;;5080449;28;20174;-66
2023/07/22 03:32:50;;;;;;;5.53;5.07;;;13.80;99.90;;;;;;5070500;28;20427;-67
2023/07/22 03:35:16;;;;;;;5.33;4.90;;;13.80;99.90;;;;;;5055055;28;20425;-68
2023/07/22 03:37:42;;;;;;;5.70;5.10;;;13.70;99.90;;;;;;5072357;28;20427;-66
2023/07/22 03:40:26;;;;;;;6.20;5.30;;;13.70;99.90;;;;;;5071687;28;20412;-67
2023/07/22 03:42:53;;;;;;;5.67;5.17;;;13.80;99.90;;;;;;5073925;28;20486;-66
2023/07/22 03:45:20;;;;;;;7.80;7.03;;;13.80;99.90;;;;;;5073707;28;20497;-67
2023/07/22 03:47:50;;;;;;;5.53;5.13;;;13.80;99.90;;;;;;5048360;28;20441;-67
2023/07/22 03:50:16;;;;;;;6.37;5.73;;;13.80;99.90;;;;;;5068541;28;20429;-67
2023/07/22 03:52:42;;;;;;;5.60;5.00;;;13.90;99.90;;;;;;5066127;28;20405;-67
2023/07/22 03:55:08;;;;;;;4.80;4.30;;;13.90;99.90;;;;;;5076164;28;20181;-66
2023/07/22 03:57:34;;;;;;;5.27;4.83;;;14.00;99.90;;;;;;5072505;28;20177;-66
2023/07/22 04:00:00;;;;;;;5.70;5.20;;;14.00;99.90;;;;;;5072251;28;21025;-67
2023/07/22 04:02:25;;;;;;;5.43;5.03;;;14.10;99.90;;;;;;5073394;28;20231;-66
2023/07/22 04:04:53;;;;;;;6.80;5.50;;;14.10;99.90;;;;;;5069042;28;20517;-66
2023/07/22 04:07:18;;;;;;;6.43;4.33;;;14.20;99.90;;;;;;5073510;28;20620;-67
2023/07/22 04:09:47;;;;;;;6.00;5.40;;;14.40;99.90;;;;;;5067889;28;20443;-68
2023/07/22 04:12:13;;;;;;;6.50;5.90;;;14.40;99.90;;;;;;5076502;28;20264;-66
2023/07/22 04:14:39;;;;;;;5.70;5.20;;;14.30;99.90;;;;;;5076153;28;20503;-66
2023/07/22 04:17:05;;;;;;;7.17;6.13;;;14.30;99.90;;;;;;5068347;28;20174;-66
2023/07/22 04:19:30;;;;;;;5.30;4.90;;;14.30;99.90;;;;;;5073626;28;20487;-67
2023/07/22 04:21:56;;;;;;;5.77;5.33;;;14.40;99.90;;;;;;5068763;28;20451;-67
2023/07/22 04:24:22;;;;;;;4.97;4.57;;;14.40;99.90;;;;;;5055076;28;20404;-66
2023/07/22 04:26:48;;;;;;;6.13;4.83;;;14.30;99.90;;;;;;5070182;28;20679;-67
2023/07/22 04:29:14;;;;;;;6.23;4.93;;;14.40;99.90;;;;;;5076250;28;20452;-67
2023/07/22 04:31:39;;;;;;;5.13;4.00;;;14.40;99.90;;;;;;5071516;28;20181;-67
2023/07/22 04:34:06;;;;;;;6.10;5.57;;;14.50;99.90;;;;;;5067901;28;20185;-67
2023/07/22 04:36:32;;;;;;;4.97;4.57;;;14.60;99.90;;;;;;5072427;28;20175;-68
2023/07/22 04:38:57;;;;;;;5.50;5.00;;;14.70;99.90;;;;;;5047445;28;20457;-67
2023/07/22 04:41:23;;;;;;;5.60;4.10;;;14.70;99.90;;;;;;5084336;28;20174;-67
2023/07/22 04:43:50;;;;;;;7.17;5.70;;;14.90;99.90;;;;;;5073238;28;20218;-67
2023/07/22 04:46:16;;;;;;;5.27;4.77;;;14.70;99.90;;;;;;5066786;28;20183;-67
2023/07/22 04:48:41;;;;;;;4.83;4.30;;;14.70;99.90;;;;;;5075775;28;20428;-67
2023/07/22 04:51:07;;;;;;;4.37;3.97;;;14.90;99.90;;;;;;5049777;28;20172;-67
2023/07/22 04:53:33;;;;;;;5.60;4.80;;;15.10;99.90;;;;;;5068274;28;20177;-67
2023/07/22 04:55:59;;;;;;;5.23;4.73;;;15.10;99.90;;;;;;5071429;28;20417;-67
2023/07/22 04:58:24;;;;;;;5.60;3.90;;;15.30;99.90;;;;;;5067710;28;20199;-67
2023/07/22 05:00:51;;;;;;;4.50;4.10;;;15.40;99.90;;;;;;5077367;28;20612;-67
2023/07/22 05:03:16;;;;;;;4.00;3.70;;;15.50;99.90;;;;;;5067064;28;20186;-68
2023/07/22 05:05:42;;;;;;;4.77;3.53;;;15.60;99.90;;;;;;5075851;28;20432;-68
2023/07/22 05:08:08;;;;;;;4.30;4.00;;;15.70;99.90;;;;;;5066551;28;20307;-68
2023/07/22 05:10:34;;;;;;;6.50;3.27;;;16.10;99.90;;;;;;5068078;28;20181;-67
2023/07/22 05:12:59;;;;;;;4.73;3.40;;;16.30;99.90;;;;;;5079542;28;20793;-66
2023/07/22 05:15:25;;;;;;;3.90;3.50;;;16.40;99.90;;;;;;5072806;28;20416;-66
2023/07/22 05:17:51;;;;;;;4.00;3.30;;;17.00;99.90;;;;;;5070580;28;20211;-67
2023/07/22 05:20:17;;;;;;;5.27;2.70;;;17.80;99.90;;;;;;5050268;28;20184;-67
2023/07/22 05:22:42;;;;;;;3.83;3.50;;;17.50;99.90;;;;;;5070912;28;20180;-68
2023/07/22 05:25:12;;;;;;;5.60;3.70;;;17.90;99.90;;;;;;5080006;28;20466;-68
2023/07/22 05:27:38;;;;;;;3.33;3.03;;;18.20;99.90;;;;;;5075562;28;20612;-67
2023/07/22 05:30:04;;;;;;;3.73;3.33;;;17.60;99.90;;;;;;5078287;28;20504;-67
2023/07/22 05:32:30;;;;;;;3.93;3.53;;;17.70;99.90;;;;;;5069017;28;20665;-67
2023/07/22 05:34:56;;;;;;;5.73;4.57;;;18.20;99.90;;;;;;5061807;28;20407;-67
2023/07/22 05:37:22;;;;;;;3.73;3.33;;;18.90;99.90;;;;;;5068184;28;20474;-67
2023/07/22 05:39:48;;;;;;;3.43;3.07;;;17.90;99.90;;;;;;5069744;28;20512;-68
2023/07/22 05:42:13;;;;;;;4.73;4.13;;;18.40;99.90;;;;;;5071294;28;21237;-66
2023/07/22 05:44:39;;;;;;;5.30;4.00;;;18.40;99.90;;;;;;5067864;28;20221;-67
2023/07/22 05:47:05;;;;;;;4.60;4.03;;;18.20;99.90;;;;;;5070231;28;20184;-67
2023/07/22 05:49:30;;;;;;;4.70;3.87;;;18.80;99.90;;;;;;5068438;28;20273;-66
2023/07/22 05:51:56;;;;;;;3.77;3.47;;;19.00;99.90;;;;;;5065480;28;20851;-67
2023/07/22 05:54:22;;;;;;;3.73;3.40;;;19.20;99.90;;;;;;5068157;28;20667;-67
2023/07/22 05:56:47;;;;;;;6.30;4.17;;;19.30;99.90;;;;;;5078023;28;20180;-67
2023/07/22 05:59:13;;;;;;;5.20;4.70;;;19.10;99.90;;;;;;5067201;28;20234;-67
2023/07/22 06:01:40;;;;;;;5.20;4.07;;;19.10;99.90;;;;;;5070509;28;20201;-67
2023/07/22 06:04:06;;;;;;;6.60;4.57;;;19.30;99.90;;;;;;5051644;28;20532;-67
2023/07/22 06:06:31;;;;;;;6.50;4.90;;;20.20;99.90;;;;;;5074240;28;20428;-67
2023/07/22 06:08:57;;;;;;;5.80;4.03;;;19.80;99.90;;;;;;5065025;28;20218;-67
2023/07/22 06:13:50;;;;;;;4.37;3.97;;;19.80;99.90;;;;;;5069709;28;20214;-70
2023/07/22 06:16:17;;;;;;;5.00;4.33;;;19.90;99.90;;;;;;5063992;28;20412;-71
2023/07/22 06:18:42;;;;;;;4.70;4.20;;;20.20;99.90;;;;;;5071039;28;20193;-71
2023/07/22 06:21:08;;;;;;;5.73;3.70;;;20.30;99.90;;;;;;5065335;28;20420;-71
2023/07/22 06:23:33;;;;;;;7.17;4.17;;;21.00;99.90;;;;;;5067126;28;20651;-69
2023/07/22 06:25:59;;;;;;;5.30;4.30;;;21.20;99.90;;;;;;5062245;28;20166;-70
2023/07/22 06:28:24;;;;;;;5.43;4.23;;;20.50;99.90;;;;;;5066611;28;20216;-70
2023/07/22 06:30:50;;;;;;;4.77;4.27;;;20.40;99.90;;;;;;5068729;28;20195;-71
2023/07/22 06:33:16;;;;;;;5.33;4.33;;;19.80;99.90;;;;;;5065495;28;20667;-70
2023/07/22 06:35:42;;;;;;;4.73;4.10;;;20.80;99.90;;;;;;5059092;28;20178;-70
2023/07/22 06:38:07;;;;;;;5.57;3.80;;;21.10;99.90;;;;;;5071367;28;20451;-71
2023/07/22 06:40:33;;;;;;;3.83;3.13;;;21.00;99.90;;;;;;5058452;28;20831;-70
2023/07/22 06:42:59;;;;;;;4.10;3.70;;;21.30;99.90;;;;;;5070876;28;20216;-70
2023/07/22 06:45:24;;;;;;;6.07;4.00;;;21.80;99.90;;;;;;5048203;28;20213;-69
2023/07/22 06:47:50;;;;;;;5.63;3.97;;;21.80;99.90;;;;;;5067845;28;20196;-69
2023/07/22 06:50:15;;;;;;;4.03;3.63;;;21.20;99.90;;;;;;5067773;28;20178;-70
2023/07/22 06:52:41;;;;;;;4.47;3.63;;;21.90;99.90;;;;;;5057623;28;20193;-70
2023/07/22 06:55:07;;;;;;;8.40;4.10;;;21.90;99.90;;;;;;5070093;28;20212;-70
2023/07/22 06:57:33;;;;;;;4.57;4.17;;;21.90;99.90;;;;;;5040110;28;20174;-70
2023/07/22 06:59:59;;;;;;;5.17;4.10;;;22.00;99.90;;;;;;5062655;28;20201;-71
2023/07/22 07:02:25;;;;;;;3.53;3.23;;;22.70;99.90;;;;;;5060806;28;20425;-69
2023/07/22 07:04:50;;;;;;;6.50;3.53;;;21.70;99.90;;;;;;5072493;28;20179;-69
2023/07/22 07:07:16;;;;;;;8.73;3.90;;;21.90;99.90;;;;;;5068232;28;20499;-70
2023/07/22 07:09:42;;;;;;;5.27;3.00;;;21.30;99.90;;;;;;5071014;28;20529;-70
2023/07/22 07:12:08;;;;;;;4.50;3.20;;;21.20;99.90;;;;;;5066737;28;20671;-71
2023/07/22 07:14:35;;;;;;;3.47;3.17;;;21.30;99.90;;;;;;5068873;28;20226;-72
2023/07/22 07:17:01;;;;;;;3.10;2.43;;;21.70;99.90;;;;;;5068364;28;20413;-69
2023/07/22 07:19:27;;;;;;;3.07;2.83;;;21.30;99.90;;;;;;5070014;28;20848;-69
2023/07/22 07:21:53;;;;;;;4.47;2.80;;;21.90;99.90;;;;;;5069282;28;20442;-70
2023/07/22 07:24:19;;;;;;;3.00;2.70;;;22.80;99.90;;;;;;5060136;28;20496;-70
2023/07/22 07:26:45;;;;;;;2.83;2.63;;;23.50;99.90;;;;;;5070982;28;20208;-70
2023/07/22 07:29:11;;;;;;;4.13;2.60;;;22.40;99.90;;;;;;5065199;28;20926;-70
2023/07/22 07:31:37;;;;;;;3.77;2.60;;;22.40;99.90;;;;;;5067773;28;20520;-70
2023/07/22 07:34:03;;;;;;;4.80;3.10;;;22.50;99.90;;;;;;5071217;28;20332;-69
2023/07/22 07:36:29;;;;;;;3.77;3.37;;;22.50;99.90;;;;;;5066201;28;21261;-70
2023/07/22 07:38:54;;;;;;;5.13;3.30;;;22.50;99.90;;;;;;5072087;28;20209;-70
2023/07/22 07:41:21;;;;;;;4.60;3.57;;;22.30;99.90;;;;;;5080892;28;20177;-70
2023/07/22 07:43:46;;;;;;;4.30;3.10;;;21.20;99.90;;;;;;5073275;28;20179;-70
2023/07/22 07:46:17;;;;;;;4.13;3.23;;;21.20;99.90;;;;;;5073747;28;20412;-70
2023/07/22 07:48:43;;;;;;;2.97;2.67;;;21.80;99.90;;;;;;5071830;28;20213;-69
2023/07/22 07:51:09;;;;;;;3.40;3.10;;;22.10;99.90;;;;;;5063709;28;20499;-70
2023/07/22 07:53:34;;;;;;;6.60;2.87;;;22.50;99.90;;;;;;5065196;28;20517;-69
2023/07/22 07:56:00;;;;;;;5.07;3.20;;;21.60;99.90;;;;;;5064991;28;20222;-68
2023/07/22 07:58:25;;;;;;;7.47;3.80;;;21.40;99.90;;;;;;5065004;28;20248;-71
2023/07/22 08:00:51;;;;;;;7.10;3.50;;;21.20;99.90;;;;;;5070364;28;20178;-69
2023/07/22 08:03:17;;;;;;;4.50;2.83;;;21.20;99.90;;;;;;5061597;28;20193;-70
2023/07/22 08:05:42;;;;;;;5.50;3.63;;;21.40;99.90;;;;;;5069875;28;20179;-69
2023/07/22 08:08:08;;;;;;;3.77;2.60;;;22.10;99.90;;;;;;5070816;28;20260;-70
2023/07/22 08:10:33;;;;;;;7.37;3.87;;;21.80;99.90;;;;;;5065365;28;20193;-71
2023/07/22 08:12:59;;;;;;;4.63;3.00;;;21.80;99.90;;;;;;5067236;28;20265;-70
2023/07/22 08:15:25;;;;;;;4.20;3.00;;;21.30;99.90;;;;;;5073147;28;20188;-70
2023/07/22 08:17:50;;;;;;;4.77;3.80;;;21.10;99.90;;;;;;5064896;28;20426;-69
2023/07/22 08:20:16;;;;;;;3.90;3.50;;;21.50;99.90;;;;;;5073150;28;20267;-69
2023/07/22 08:22:41;;;;;;;4.10;3.10;;;21.20;99.90;;;;;;5071546;28;20648;-69
2023/07/22 08:25:07;;;;;;;4.00;3.10;;;21.10;99.90;;;;;;5068356;28;20182;-69
2023/07/22 08:27:33;;;;;;;4.43;3.50;;;20.60;99.90;;;;;;5070341;28;20660;-69
2023/07/22 08:29:58;;;;;;;3.67;3.37;;;20.60;99.90;;;;;;5069110;28;20187;-70
2023/07/22 08:32:24;;;;;;;4.40;4.00;;;20.60;99.90;;;;;;5067995;28;20192;-69
2023/07/22 08:34:49;;;;;;;11.87;9.10;;;20.90;99.90;;;;;;5072066;28;20548;-70
2023/07/22 08:37:15;;;;;;;6.03;3.70;;;20.80;99.90;;;;;;5064528;28;20193;-70
2023/07/22 08:39:40;;;;;;;4.13;3.00;;;21.00;99.90;;;;;;5069768;28;20218;-70
2023/07/22 08:42:07;;;;;;;4.37;3.63;;;21.30;99.90;;;;;;5061874;28;20199;-70
2023/07/22 08:44:35;;;;;;;4.90;3.90;;;21.30;99.90;;;;;;5067066;28;20188;-69
2023/07/22 08:47:06;;;;;;;3.93;3.53;;;21.80;99.90;;;;;;5072435;28;20404;-70
2023/07/22 08:49:32;;;;;;;5.37;3.23;;;21.60;99.90;;;;;;5069251;28;20771;-69
2023/07/22 08:52:00;;;;;;;4.50;3.37;;;22.00;99.90;;;;;;5071740;28;20462;-66
2023/07/22 08:54:26;;;;;;;4.37;3.77;;;21.70;99.90;;;;;;5068308;28;20411;-69
2023/07/22 08:56:52;;;;;;;3.43;3.13;;;21.10;99.90;;;;;;5070553;28;20427;-68
2023/07/22 08:59:18;;;;;;;4.60;4.20;;;21.70;99.90;;;;;;5064612;28;20451;-71
2023/07/22 09:01:45;;;;;;;3.87;3.47;;;21.70;99.90;;;;;;5069650;28;20192;-70
2023/07/22 09:04:10;;;;;;;2.90;2.70;;;22.00;99.90;;;;;;5072262;28;20416;-69
2023/07/22 09:06:36;;;;;;;4.03;3.63;;;21.30;99.90;;;;;;5067832;28;20498;-70
2023/07/22 09:09:07;;;;;;;3.67;3.20;;;21.80;99.90;;;;;;5065267;28;20210;-69
2023/07/22 09:11:34;;;;;;;4.90;3.80;;;21.60;99.90;;;;;;5067818;28;20173;-70
2023/07/22 09:14:02;;;;;;;4.10;3.70;;;21.50;99.90;;;;;;5066208;28;20946;-69
2023/07/22 09:16:29;;;;;;;6.57;3.60;;;21.70;99.90;;;;;;5063347;28;20897;-69
2023/07/22 09:18:57;;;;;;;5.07;3.83;;;22.30;99.90;;;;;;5069463;28;20995;-69
2023/07/22 09:21:23;;;;;;;5.33;3.67;;;22.00;99.90;;;;;;5071752;28;20475;-70
2023/07/22 09:23:48;;;;;;;6.40;3.93;;;21.90;99.90;;;;;;5060464;28;20500;-70
2023/07/22 09:26:17;;;;;;;4.00;3.33;;;22.20;99.90;;;;;;5066552;28;20200;-69
2023/07/22 09:28:58;;;;;;;4.70;3.00;;;23.00;99.90;;;;;;5069448;28;20210;-71
2023/07/22 09:31:25;;;;;;;3.33;2.40;;;23.10;99.90;;;;;;5077831;28;20414;-70
2023/07/22 09:33:53;;;;;;;5.87;5.37;;;22.50;99.90;;;;;;5084762;28;20984;-69
2023/07/22 09:36:19;;;;;;;5.57;5.00;;;23.00;99.90;;;;;;5074095;28;20416;-70
2023/07/22 09:38:45;;;;;;;5.13;3.47;;;23.70;99.90;;;;;;5058967;28;20785;-70
2023/07/22 09:41:11;;;;;;;4.13;3.73;;;22.70;99.90;;;;;;5065664;28;20177;-70
2023/07/22 09:43:40;;;;;;;3.33;3.03;;;23.00;99.90;;;;;;5065732;28;20194;-70
2023/07/22 09:46:10;;;;;;;3.30;3.00;;;24.00;99.90;;;;;;5065729;28;20186;-70
2023/07/22 09:48:43;;;;;;;4.40;3.60;;;23.70;99.90;;;;;;5068361;28;20892;-71
2023/07/22 09:51:14;;;;;;;3.30;3.00;;;23.50;99.90;;;;;;5064657;28;20424;-70
2023/07/22 09:53:47;;;;;;;3.50;2.77;;;23.10;99.90;;;;;;5068388;28;20488;-70
2023/07/22 09:56:13;;;;;;;2.77;2.30;;;22.90;99.90;;;;;;5064335;28;20782;-71
2023/07/22 09:58:40;;;;;;;3.20;2.90;;;24.50;99.90;;;;;;5061987;28;20456;-71
2023/07/22 10:01:07;;;;;;;2.60;2.33;;;24.60;99.90;;;;;;5059362;28;20170;-71
2023/07/22 10:03:36;;;;;;;2.57;2.37;;;23.70;99.90;;;;;;5071493;28;20435;-71
2023/07/22 10:06:05;;;;;;;3.90;2.67;;;23.80;99.90;;;;;;5067579;28;20919;-70
2023/07/22 10:08:34;;;;;;;7.87;2.70;;;23.40;99.90;;;;;;5067108;28;20416;-70
2023/07/22 10:11:02;;;;;;;4.30;2.53;;;22.90;99.90;;;;;;5060273;28;20415;-71
2023/07/22 10:13:28;;;;;;;2.90;2.60;;;23.30;99.90;;;;;;5066007;28;20459;-69
2023/07/22 10:15:54;;;;;;;3.77;2.33;;;23.80;99.90;;;;;;5068196;28;20412;-70
2023/07/22 10:18:23;;;;;;;3.67;2.60;;;23.70;99.90;;;;;;5061125;28;20193;-71
2023/07/22 10:20:49;;;;;;;6.27;2.70;;;23.70;99.90;;;;;;5071061;28;20174;-71
2023/07/22 10:23:15;;;;;;;3.70;2.50;;;24.00;99.90;;;;;;5069825;28;20432;-70
2023/07/22 10:25:42;;;;;;;2.60;2.40;;;23.50;99.90;;;;;;5062957;28;20455;-70
2023/07/22 10:28:09;;;;;;;3.90;2.53;;;23.30;99.90;;;;;;5068807;28;20416;-71
2023/07/22 10:30:35;;;;;;;3.60;2.00;;;23.80;99.90;;;;;;5071443;28;20417;-70
2023/07/22 10:33:00;;;;;;;2.40;2.20;;;22.90;99.90;;;;;;5067810;28;20425;-69
2023/07/22 10:35:32;;;;;;;3.60;3.00;;;22.10;99.90;;;;;;5070832;28;20177;-70
2023/07/22 10:38:08;;;;;;;4.07;2.60;;;22.00;99.90;;;;;;5063589;28;20174;-70
2023/07/22 10:40:45;;;;;;;2.70;2.33;;;21.90;99.90;;;;;;5071978;28;20409;-70
2023/07/22 10:43:10;;;;;;;3.13;2.53;;;21.90;99.90;;;;;;5066868;28;20426;-71
2023/07/22 10:45:49;;;;;;;3.60;2.53;;;21.90;99.90;;;;;;5054465;28;20980;-70
2023/07/22 10:48:14;;;;;;;3.13;2.50;;;22.60;99.90;;;;;;5069582;28;20659;-70
2023/07/22 10:50:54;;;;;;;2.63;2.37;;;22.60;99.90;;;;;;5067264;28;20415;-71
2023/07/22 10:53:26;;;;;;;6.90;2.50;;;22.20;99.90;;;;;;5075346;28;20189;-71
2023/07/22 10:56:11;;;;;;;2.83;2.53;;;22.30;99.90;;;;;;5074535;28;20416;-70
2023/07/22 10:58:48;;;;;;;3.97;2.40;;;22.50;99.90;;;;;;5072000;28;20452;-70
2023/07/22 11:01:33;;;;;;;3.90;2.40;;;22.20;99.90;;;;;;5072228;28;20505;-70
2023/07/22 11:04:17;;;;;;;2.77;2.30;;;21.70;99.90;;;;;;5063114;28;20774;-71
2023/07/22 11:06:48;;;;;;;2.70;2.50;;;22.10;99.90;;;;;;5069287;28;20403;-71
2023/07/22 11:09:34;;;;;;;4.70;2.80;;;21.90;99.90;;;;;;5074240;28;20413;-66
2023/07/22 11:12:01;;;;;;;3.97;3.27;;;22.70;99.90;;;;;;5067253;28;20489;-68
2023/07/22 11:14:28;;;;;;;6.37;3.40;;;22.80;99.90;;;;;;5067041;28;20413;-71
2023/07/22 11:16:56;;;;;;;3.73;2.77;;;23.10;99.90;;;;;;5063473;28;20480;-68
2023/07/22 11:19:23;;;;;;;3.70;3.23;;;23.30;99.90;;;;;;5062967;28;20475;-71
2023/07/22 11:21:51;;;;;;;5.20;4.60;;;23.30;99.90;;;;;;5072289;28;20430;-71
2023/07/22 11:24:18;;;;;;;4.40;3.60;;;23.40;99.90;;;;;;5056695;28;20436;-71
2023/07/22 11:26:45;;;;;;;5.50;4.27;;;23.20;99.90;;;;;;5064403;28;20410;-71
2023/07/22 11:29:12;;;;;;;6.20;5.13;;;23.30;99.90;;;;;;5074543;28;20417;-70
2023/07/22 11:31:45;;;;;;;4.37;3.97;;;24.10;99.90;;;;;;5066336;28;20432;-71
2023/07/22 11:34:11;;;;;;;4.30;3.90;;;23.70;99.90;;;;;;5065645;28;20918;-69
2023/07/22 11:36:37;;;;;;;4.33;3.93;;;23.90;99.90;;;;;;5073944;28;20503;-70
2023/07/22 11:39:04;;;;;;;4.00;3.60;;;23.60;99.90;;;;;;5069065;28;20553;-70
2023/07/22 11:41:30;;;;;;;4.90;4.07;;;23.60;99.90;;;;;;5065678;28;20173;-70
2023/07/22 11:44:00;;;;;;;5.07;3.60;;;23.50;99.90;;;;;;5066112;28;20930;-70
2023/07/22 11:46:26;;;;;;;6.50;3.57;;;23.90;99.90;;;;;;5074067;28;20419;-71
2023/07/22 11:48:53;;;;;;;3.83;3.10;;;23.30;99.90;;;;;;5073793;28;20968;-71
2023/07/22 11:51:24;;;;;;;4.57;3.77;;;23.00;99.90;;;;;;5073152;28;20442;-70
2023/07/22 11:53:51;;;;;;;5.00;3.90;;;23.00;99.90;;;;;;5070907;28;20428;-69
2023/07/22 11:56:27;;;;;;;4.00;3.60;;;23.20;99.90;;;;;;5067031;28;20462;-70
2023/07/22 11:58:55;;;;;;;4.03;3.50;;;23.00;99.90;;;;;;5070556;28;20457;-70
2023/07/22 12:01:22;;;;;;;4.47;3.53;;;22.80;99.90;;;;;;5064419;28;20408;-69
2023/07/22 12:03:48;;;;;;;4.53;3.53;;;22.90;99.90;;;;;;5073786;28;20503;-70
2023/07/22 12:06:15;;;;;;;7.33;3.97;;;23.60;99.90;;;;;;5070284;28;20507;-71
2023/07/22 12:08:48;;;;;;;5.37;4.63;;;23.80;99.90;;;;;;5072596;28;20835;-70
2023/07/22 12:11:22;;;;;;;3.60;3.30;;;23.70;99.90;;;;;;5067432;28;20504;-70
2023/07/22 12:14:09;;;;;;;6.10;3.87;;;23.60;99.90;;;;;;5070550;28;20465;-69
2023/07/22 12:16:39;;;;;;;3.37;3.07;;;23.20;99.90;;;;;;5068010;28;20443;-69
2023/07/22 12:19:06;;;;;;;3.97;3.60;;;23.00;99.90;;;;;;5065887;28;20813;-69
2023/07/22 12:21:32;;;;;;;4.10;3.47;;;23.20;99.90;;;;;;5051917;28;20426;-69
2023/07/22 12:23:58;;;;;;;3.57;3.27;;;23.70;99.80;;;;;;5063993;28;20781;-69
2023/07/22 12:26:24;;;;;;;4.20;3.53;;;24.00;99.90;;;;;;5109124;22;20847;-69
2023/07/22 12:28:50;;;;;;;7.07;3.77;;;24.00;99.50;;;;;;5085072;28;20301;-67
2023/07/22 12:31:16;;;;;;;3.37;3.07;;;23.50;99.00;;;;;;5086826;28;20866;-68
2023/07/22 12:33:42;;;;;;;4.93;3.40;;;23.40;99.90;;;;;;5085591;28;20212;-69
2023/07/22 12:36:07;;;;;;;5.70;3.83;;;23.40;99.50;;;;;;5084598;28;20419;-68
2023/07/22 12:38:33;;;;;;;4.53;3.60;;;23.30;99.90;;;;;;5092413;28;20618;-68
2023/07/22 12:40:59;;;;;;;3.40;3.10;;;23.50;99.30;;;;;;5085165;28;20210;-69
2023/07/22 12:43:25;;;;;;;4.33;3.90;;;23.70;99.10;;;;;;5098753;28;20179;-68
2023/07/22 12:45:51;;;;;;;3.70;3.40;;;23.30;99.40;;;;;;5085734;28;20423;-69